Time;durP1;ratioP1;P1;durP2;ratioP2;P2;SDS_P1;SDS_P2;PMS_P1;PMS_P2;Temp;Humidity;BMP_temperature;BMP_pressure;BME280_temperature;BME280_humidity;BME280_pressure;Samples;Min_cycle;Max_cycle;Signal;HPM_P1;HPM_P2
2022/05/28 00:00:39;;;;;;;0.88;0.40;;;;;;;;;;1851708;76;26322;-51
2022/05/28 00:03:06;;;;;;;0.33;0.33;;;;;;;;;;1846472;77;26350;-55
2022/05/28 00:05:34;;;;;;;0.30;0.30;;;;;;;;;;1850638;76;26229;-47
2022/05/28 00:08:02;;;;;;;0.30;0.30;;;;;;;;;;1857669;77;26804;-48
2022/05/28 00:10:29;;;;;;;0.50;0.50;;;;;;;;;;1856632;76;26808;-55
2022/05/28 00:12:57;;;;;;;0.30;0.30;;;;;;;;;;1858377;77;26272;-52
2022/05/28 00:15:24;;;;;;;0.93;0.82;;;;;;;;;;1858106;77;26773;-55
2022/05/28 00:17:52;;;;;;;0.40;0.40;;;;;;;;;;1849785;76;26308;-57
2022/05/28 00:20:19;;;;;;;0.33;0.20;;;;;;;;;;1841825;77;26307;-53
2022/05/28 00:22:47;;;;;;;0.40;0.40;;;;;;;;;;1834591;77;26374;-49
2022/05/28 00:25:16;;;;;;;0.47;0.47;;;;;;;;;;1858092;77;26261;-50
2022/05/28 00:27:43;;;;;;;2.87;0.50;;;;;;;;;;1858123;77;26292;-50
2022/05/28 00:30:12;;;;;;;0.37;0.37;;;;;;;;;;1858194;77;26284;-62
2022/05/28 00:32:40;;;;;;;0.40;0.40;;;;;;;;;;1858118;77;26770;-54
2022/05/28 00:35:10;;;;;;;2.42;0.60;;;;;;;;;;1851066;77;26311;-49
2022/05/28 00:37:37;;;;;;;0.37;0.37;;;;;;;;;;1857865;76;26328;-49
2022/05/28 00:40:06;;;;;;;0.37;0.37;;;;;;;;;;1855610;77;26292;-46
2022/05/28 00:42:33;;;;;;;0.30;0.30;;;;;;;;;;1855985;77;26253;-57
2022/05/28 00:45:00;;;;;;;0.55;0.55;;;;;;;;;;1858098;77;26819;-46
2022/05/28 00:47:28;;;;;;;0.30;0.30;;;;;;;;;;1858061;77;26339;-53
2022/05/28 00:49:55;;;;;;;0.40;0.40;;;;;;;;;;1858177;77;26257;-48
2022/05/28 00:52:24;;;;;;;0.40;0.40;;;;;;;;;;1858170;77;27327;-51
2022/05/28 00:54:53;;;;;;;0.30;0.30;;;;;;;;;;1854530;77;26304;-59
2022/05/28 00:57:22;;;;;;;0.50;0.50;;;;;;;;;;1858161;77;26273;-52
2022/05/28 00:59:49;;;;;;;0.40;0.40;;;;;;;;;;1852549;76;26249;-48
2022/05/28 01:02:21;;;;;;;0.40;0.40;;;;;;;;;;1858194;77;26656;-46
2022/05/28 01:05:02;;;;;;;3.92;0.40;;;;;;;;;;1856560;76;26770;-46
2022/05/28 01:07:33;;;;;;;0.30;0.30;;;;;;;;;;1843715;77;26724;-55
2022/05/28 01:10:18;;;;;;;0.40;0.40;;;;;;;;;;1845692;77;26331;-51
2022/05/28 01:12:53;;;;;;;0.62;0.40;;;;;;;;;;1851061;76;26741;-54
2022/05/28 01:15:22;;;;;;;0.30;0.30;;;;;;;;;;1857441;77;26292;-62
2022/05/28 01:17:54;;;;;;;0.40;0.40;;;;;;;;;;1865071;76;26643;-49
2022/05/28 01:20:23;;;;;;;0.33;0.33;;;;;;;;;;1857669;76;26626;-47
2022/05/28 01:23:07;;;;;;;0.30;0.30;;;;;;;;;;1857484;76;26713;-56
2022/05/28 01:25:54;;;;;;;0.40;0.40;;;;;;;;;;1855080;76;27353;-56
2022/05/28 01:28:28;;;;;;;0.40;0.40;;;;;;;;;;1857843;77;26269;-52
2022/05/28 01:30:56;;;;;;;0.30;0.30;;;;;;;;;;1857295;76;26382;-60
2022/05/28 01:33:24;;;;;;;0.40;0.40;;;;;;;;;;1856950;76;26363;-50
2022/05/28 01:35:53;;;;;;;0.33;0.33;;;;;;;;;;1860512;76;26278;-50
2022/05/28 01:38:20;;;;;;;0.28;0.28;;;;;;;;;;1852163;76;26300;-48
2022/05/28 01:40:48;;;;;;;0.33;0.33;;;;;;;;;;1857434;76;26279;-62
2022/05/28 01:43:18;;;;;;;0.30;0.30;;;;;;;;;;1847119;77;26530;-54
2022/05/28 01:45:46;;;;;;;0.30;0.30;;;;;;;;;;1857628;77;26331;-51
2022/05/28 01:48:14;;;;;;;0.33;0.33;;;;;;;;;;1857515;77;26323;-49
2022/05/28 01:50:43;;;;;;;0.30;0.30;;;;;;;;;;1857336;76;26338;-52
2022/05/28 01:53:12;;;;;;;0.30;0.30;;;;;;;;;;1855559;76;26351;-54
2022/05/28 01:55:40;;;;;;;0.30;0.30;;;;;;;;;;1850413;76;26737;-53
2022/05/28 01:58:08;;;;;;;0.90;0.40;;;;;;;;;;1856525;76;26768;-55
2022/05/28 02:00:35;;;;;;;0.40;0.40;;;;;;;;;;1839786;76;26358;-55
2022/05/28 02:03:03;;;;;;;0.35;0.35;;;;;;;;;;1855267;76;26277;-52
2022/05/28 02:05:31;;;;;;;0.30;0.30;;;;;;;;;;1856507;77;26717;-57
2022/05/28 02:07:58;;;;;;;0.37;0.37;;;;;;;;;;1854921;76;26311;-59
2022/05/28 02:10:25;;;;;;;0.40;0.40;;;;;;;;;;1850715;76;26296;-51
2022/05/28 02:12:57;;;;;;;6.78;0.40;;;;;;;;;;1842464;76;26927;-55
2022/05/28 02:15:42;;;;;;;0.30;0.30;;;;;;;;;;1825684;76;26366;-51
2022/05/28 02:18:11;;;;;;;0.30;0.30;;;;;;;;;;1848657;76;26779;-55
2022/05/28 02:20:43;;;;;;;0.40;0.40;;;;;;;;;;1844602;77;27190;-53
2022/05/28 02:23:11;;;;;;;0.30;0.30;;;;;;;;;;1833795;76;26261;-53
2022/05/28 02:25:46;;;;;;;0.28;0.28;;;;;;;;;;1856517;76;26321;-55
2022/05/28 02:28:15;;;;;;;0.28;0.28;;;;;;;;;;1849326;76;26305;-50
2022/05/28 02:30:46;;;;;;;0.40;0.40;;;;;;;;;;1852639;76;26813;-50
2022/05/28 02:33:13;;;;;;;0.30;0.30;;;;;;;;;;1858502;76;26749;-49
2022/05/28 02:35:41;;;;;;;0.30;0.30;;;;;;;;;;1849537;76;26779;-64
2022/05/28 02:38:08;;;;;;;1.25;0.37;;;;;;;;;;1848389;76;26805;-60
2022/05/28 02:40:35;;;;;;;0.40;0.40;;;;;;;;;;1848390;76;26860;-56
2022/05/28 02:43:02;;;;;;;1.02;0.40;;;;;;;;;;1848095;76;26719;-56
2022/05/28 02:45:30;;;;;;;0.30;0.30;;;;;;;;;;1848697;76;26319;-56
2022/05/28 02:47:57;;;;;;;0.40;0.40;;;;;;;;;;1845674;76;26316;-53
2022/05/28 02:50:27;;;;;;;0.30;0.30;;;;;;;;;;1837809;76;26254;-57
2022/05/28 02:52:55;;;;;;;0.28;0.28;;;;;;;;;;1847538;76;26277;-56
2022/05/28 02:55:23;;;;;;;0.45;0.45;;;;;;;;;;1848045;76;26317;-56
2022/05/28 02:57:51;;;;;;;0.30;0.30;;;;;;;;;;1842725;76;26269;-53
2022/05/28 03:00:19;;;;;;;0.40;0.40;;;;;;;;;;1848277;76;26233;-55
2022/05/28 03:02:46;;;;;;;0.50;0.50;;;;;;;;;;1834441;76;27457;-54
2022/05/28 03:05:15;;;;;;;0.40;0.40;;;;;;;;;;1848129;77;26258;-60
2022/05/28 03:07:42;;;;;;;0.40;0.40;;;;;;;;;;1839690;76;26334;-56
2022/05/28 03:10:11;;;;;;;0.35;0.35;;;;;;;;;;1846110;76;26888;-48
2022/05/28 03:12:39;;;;;;;0.50;0.50;;;;;;;;;;1848093;77;26717;-47
2022/05/28 03:15:08;;;;;;;0.40;0.40;;;;;;;;;;1848362;77;26341;-52
2022/05/28 03:17:35;;;;;;;0.40;0.40;;;;;;;;;;1842465;77;27495;-59
2022/05/28 03:20:03;;;;;;;0.50;0.50;;;;;;;;;;1829054;76;26954;-58
2022/05/28 03:22:30;;;;;;;0.40;0.40;;;;;;;;;;1841624;77;26222;-57
2022/05/28 03:24:58;;;;;;;0.40;0.40;;;;;;;;;;1846508;76;26725;-54
2022/05/28 03:27:25;;;;;;;0.30;0.30;;;;;;;;;;1839562;77;26323;-53
2022/05/28 03:29:52;;;;;;;0.40;0.40;;;;;;;;;;1839199;76;26258;-58
2022/05/28 03:32:20;;;;;;;0.50;0.50;;;;;;;;;;1845671;76;26257;-51
2022/05/28 03:34:47;;;;;;;0.68;0.33;;;;;;;;;;1849012;76;26768;-49
2022/05/28 03:37:15;;;;;;;1.40;0.40;;;;;;;;;;1847740;76;26366;-59
2022/05/28 03:39:42;;;;;;;0.40;0.40;;;;;;;;;;1834295;77;26321;-47
2022/05/28 03:42:09;;;;;;;0.37;0.37;;;;;;;;;;1836034;77;26250;-54
2022/05/28 03:44:37;;;;;;;0.50;0.50;;;;;;;;;;1832301;77;26265;-50
2022/05/28 03:47:04;;;;;;;0.40;0.40;;;;;;;;;;1832625;77;26277;-58
2022/05/28 03:49:33;;;;;;;0.40;0.40;;;;;;;;;;1835999;77;26316;-50
2022/05/28 03:52:01;;;;;;;0.50;0.50;;;;;;;;;;1835118;77;26624;-60
2022/05/28 03:54:28;;;;;;;0.40;0.40;;;;;;;;;;1835138;78;26679;-51
2022/05/28 03:56:57;;;;;;;0.40;0.40;;;;;;;;;;1836848;77;26282;-59
2022/05/28 03:59:25;;;;;;;0.90;0.40;;;;;;;;;;1837124;77;26210;-57
2022/05/28 04:01:53;;;;;;;0.50;0.50;;;;;;;;;;1836863;77;26251;-49
2022/05/28 04:04:20;;;;;;;0.55;0.50;;;;;;;;;;1832864;77;26796;-48
2022/05/28 04:06:48;;;;;;;0.42;0.42;;;;;;;;;;1837076;78;26352;-53
2022/05/28 04:09:16;;;;;;;0.50;0.50;;;;;;;;;;1819922;76;26281;-59
2022/05/28 04:11:43;;;;;;;0.42;0.42;;;;;;;;;;1828674;78;26199;-47
2022/05/28 04:14:11;;;;;;;0.42;0.42;;;;;;;;;;1836999;77;26820;-50
2022/05/28 04:16:39;;;;;;;0.50;0.50;;;;;;;;;;1834643;77;26367;-51
2022/05/28 04:19:06;;;;;;;0.53;0.53;;;;;;;;;;1835083;77;26306;-62
2022/05/28 04:21:34;;;;;;;0.50;0.50;;;;;;;;;;1825576;78;26265;-52
2022/05/28 04:24:01;;;;;;;1.45;0.55;;;;;;;;;;1826486;77;26266;-49
2022/05/28 04:26:28;;;;;;;0.50;0.50;;;;;;;;;;1836814;77;26263;-57
2022/05/28 04:28:56;;;;;;;0.50;0.50;;;;;;;;;;1836450;78;26735;-64
2022/05/28 04:31:24;;;;;;;1.30;0.70;;;;;;;;;;1832380;77;26844;-58
2022/05/28 04:33:52;;;;;;;0.40;0.40;;;;;;;;;;1837153;78;26789;-54
2022/05/28 04:36:19;;;;;;;0.50;0.50;;;;;;;;;;1822817;77;26351;-55
2022/05/28 04:38:46;;;;;;;0.75;0.60;;;;;;;;;;1834011;76;26312;-57
2022/05/28 04:41:14;;;;;;;0.72;0.53;;;;;;;;;;1828521;76;26336;-54
2022/05/28 04:43:41;;;;;;;0.57;0.57;;;;;;;;;;1867399;76;26793;-57
2022/05/28 04:46:08;;;;;;;0.60;0.50;;;;;;;;;;1867337;76;26765;-59
2022/05/28 04:48:36;;;;;;;1.72;0.57;;;;;;;;;;1847795;77;26271;-51
2022/05/28 04:51:03;;;;;;;0.60;0.60;;;;;;;;;;1846723;76;26241;-54
2022/05/28 04:53:31;;;;;;;0.60;0.60;;;;;;;;;;1857440;76;26285;-55
2022/05/28 04:55:58;;;;;;;0.50;0.50;;;;;;;;;;1856220;77;26269;-56
2022/05/28 04:58:27;;;;;;;0.50;0.50;;;;;;;;;;1856958;76;26303;-51
2022/05/28 05:00:55;;;;;;;0.53;0.53;;;;;;;;;;1844488;77;26327;-54
2022/05/28 05:03:22;;;;;;;0.42;0.42;;;;;;;;;;1857406;76;26879;-52
2022/05/28 05:05:50;;;;;;;0.50;0.50;;;;;;;;;;1854671;76;26261;-56
2022/05/28 05:08:17;;;;;;;0.60;0.60;;;;;;;;;;1848979;76;26268;-48
2022/05/28 05:10:46;;;;;;;0.53;0.53;;;;;;;;;;1832323;76;26366;-47
2022/05/28 05:13:13;;;;;;;0.60;0.60;;;;;;;;;;1854747;76;26280;-60
2022/05/28 05:15:41;;;;;;;0.70;0.70;;;;;;;;;;1837242;76;26955;-54
2022/05/28 05:18:08;;;;;;;0.60;0.60;;;;;;;;;;1841042;76;26198;-58
2022/05/28 05:20:35;;;;;;;0.60;0.60;;;;;;;;;;1840283;76;26275;-55
2022/05/28 05:23:03;;;;;;;0.70;0.70;;;;;;;;;;1854027;76;26304;-52
2022/05/28 05:25:31;;;;;;;0.75;0.75;;;;;;;;;;1857448;76;26334;-51
2022/05/28 05:27:59;;;;;;;0.68;0.68;;;;;;;;;;1857351;77;26261;-55
2022/05/28 05:30:27;;;;;;;0.60;0.60;;;;;;;;;;1856825;77;26293;-58
2022/05/28 05:32:55;;;;;;;0.65;0.65;;;;;;;;;;1852041;76;26323;-56
2022/05/28 05:35:23;;;;;;;0.60;0.60;;;;;;;;;;1853085;76;26380;-55
2022/05/28 05:37:50;;;;;;;1.57;0.65;;;;;;;;;;1838924;77;26271;-53
2022/05/28 05:40:17;;;;;;;0.60;0.60;;;;;;;;;;1849390;76;26316;-50
2022/05/28 05:42:45;;;;;;;0.80;0.80;;;;;;;;;;1852771;76;26268;-66
2022/05/28 05:45:12;;;;;;;0.65;0.65;;;;;;;;;;1841397;76;26256;-58
2022/05/28 05:47:39;;;;;;;0.80;0.80;;;;;;;;;;1845954;76;26793;-50
2022/05/28 05:50:07;;;;;;;0.70;0.70;;;;;;;;;;1835793;76;26721;-52
2022/05/28 05:52:35;;;;;;;0.75;0.72;;;;;;;;;;1856898;76;26360;-53
2022/05/28 05:55:02;;;;;;;0.78;0.78;;;;;;;;;;1851236;76;26277;-51
2022/05/28 05:57:29;;;;;;;0.60;0.60;;;;;;;;;;1844346;76;26735;-48
2022/05/28 05:59:57;;;;;;;0.80;0.80;;;;;;;;;;1857129;76;26726;-54
2022/05/28 06:02:24;;;;;;;0.62;0.62;;;;;;;;;;1850890;76;26322;-63
2022/05/28 06:04:53;;;;;;;0.70;0.70;;;;;;;;;;1843004;76;26389;-63
2022/05/28 06:07:20;;;;;;;0.95;0.65;;;;;;;;;;1836171;76;26368;-49
2022/05/28 06:09:47;;;;;;;1.52;0.70;;;;;;;;;;1830618;77;26434;-52
2022/05/28 06:12:15;;;;;;;0.60;0.60;;;;;;;;;;1845943;76;26339;-58
2022/05/28 06:14:42;;;;;;;0.60;0.60;;;;;;;;;;1857633;76;26876;-59
2022/05/28 06:17:10;;;;;;;0.60;0.60;;;;;;;;;;1857690;76;26273;-56
2022/05/28 06:19:37;;;;;;;0.70;0.70;;;;;;;;;;1844814;76;26302;-54
2022/05/28 06:22:06;;;;;;;0.68;0.68;;;;;;;;;;1845706;76;26271;-57
2022/05/28 06:24:33;;;;;;;0.85;0.70;;;;;;;;;;1858426;76;26262;-52
2022/05/28 06:27:01;;;;;;;1.07;0.72;;;;;;;;;;1859162;76;26202;-49
2022/05/28 06:29:28;;;;;;;0.70;0.70;;;;;;;;;;1855634;77;26753;-53
2022/05/28 06:31:56;;;;;;;1.25;0.65;;;;;;;;;;1853441;76;26362;-54
2022/05/28 06:34:24;;;;;;;1.75;0.80;;;;;;;;;;1854888;76;26287;-53
2022/05/28 06:36:51;;;;;;;1.42;0.70;;;;;;;;;;1856077;76;26281;-61
2022/05/28 06:39:18;;;;;;;4.65;0.80;;;;;;;;;;1854615;76;26598;-57
2022/05/28 06:41:46;;;;;;;0.70;0.70;;;;;;;;;;1834084;77;26340;-59
2022/05/28 06:44:13;;;;;;;0.70;0.70;;;;;;;;;;1834679;77;26722;-46
2022/05/28 06:46:40;;;;;;;0.70;0.70;;;;;;;;;;1834628;77;26817;-54
2022/05/28 06:49:07;;;;;;;4.42;0.80;;;;;;;;;;1835071;77;26804;-60
2022/05/28 06:51:35;;;;;;;0.60;0.60;;;;;;;;;;1834500;77;27519;-50
2022/05/28 06:54:02;;;;;;;0.60;0.60;;;;;;;;;;1829761;77;26290;-50
2022/05/28 06:56:29;;;;;;;1.65;0.80;;;;;;;;;;1833549;77;26758;-53
2022/05/28 06:58:57;;;;;;;0.60;0.60;;;;;;;;;;1832520;77;26599;-65
2022/05/28 07:01:25;;;;;;;0.57;0.57;;;;;;;;;;1831893;77;26278;-57
2022/05/28 07:03:52;;;;;;;2.10;0.65;;;;;;;;;;1833702;77;26274;-65
2022/05/28 07:06:19;;;;;;;0.60;0.60;;;;;;;;;;1833760;77;26356;-56
2022/05/28 07:08:46;;;;;;;2.40;0.80;;;;;;;;;;1833737;77;26462;-57
2022/05/28 07:11:14;;;;;;;0.60;0.60;;;;;;;;;;1832325;77;26795;-56
2022/05/28 07:13:42;;;;;;;0.60;0.60;;;;;;;;;;1831883;77;26320;-58
2022/05/28 07:16:11;;;;;;;0.60;0.60;;;;;;;;;;1832928;77;26371;-55
2022/05/28 07:18:39;;;;;;;1.32;0.60;;;;;;;;;;1829602;77;26285;-57
2022/05/28 07:21:07;;;;;;;0.70;0.70;;;;;;;;;;1832880;77;26294;-59
2022/05/28 07:23:35;;;;;;;0.70;0.70;;;;;;;;;;1835489;77;26706;-53
2022/05/28 07:26:04;;;;;;;1.52;0.70;;;;;;;;;;1835330;77;26320;-53
2022/05/28 07:28:33;;;;;;;1.80;0.70;;;;;;;;;;1834420;77;26273;-60
2022/05/28 07:31:01;;;;;;;1.70;0.62;;;;;;;;;;1833819;77;26329;-57
2022/05/28 07:33:30;;;;;;;2.52;0.78;;;;;;;;;;1831302;76;26324;-65
2022/05/28 07:35:58;;;;;;;4.12;1.00;;;;;;;;;;1829502;77;26727;-59
2022/05/28 07:38:26;;;;;;;0.95;0.90;;;;;;;;;;1831658;77;26335;-54
2022/05/28 07:40:54;;;;;;;7.42;0.90;;;;;;;;;;1832487;77;26282;-55
2022/05/28 07:43:21;;;;;;;1.80;0.88;;;;;;;;;;1831910;77;26322;-56
2022/05/28 07:45:49;;;;;;;7.10;1.10;;;;;;;;;;1834245;77;26356;-50
2022/05/28 07:48:17;;;;;;;4.12;1.10;;;;;;;;;;1834580;77;26841;-55
2022/05/28 07:50:45;;;;;;;6.72;1.20;;;;;;;;;;1833248;76;26269;-64
2022/05/28 07:53:12;;;;;;;2.08;0.90;;;;;;;;;;1831861;77;25805;-56
2022/05/28 07:55:40;;;;;;;8.65;1.17;;;;;;;;;;1831978;77;26361;-61
2022/05/28 07:58:12;;;;;;;3.45;0.90;;;;;;;;;;1830708;77;26263;-54
2022/05/28 08:00:41;;;;;;;0.78;0.70;;;;;;;;;;1830720;77;26902;-57
2022/05/28 08:03:09;;;;;;;3.35;0.90;;;;;;;;;;1834654;77;26347;-52
2022/05/28 08:05:37;;;;;;;3.27;0.90;;;;;;;;;;1833571;77;26301;-57
2022/05/28 08:08:05;;;;;;;1.50;0.80;;;;;;;;;;1834070;77;26305;-50
2022/05/28 08:10:33;;;;;;;3.15;0.93;;;;;;;;;;1835105;77;26839;-62
2022/05/28 08:13:01;;;;;;;1.37;0.80;;;;;;;;;;1831312;77;26255;-57
2022/05/28 08:15:29;;;;;;;2.52;1.15;;;;;;;;;;1830616;77;26262;-54
2022/05/28 08:17:56;;;;;;;3.08;1.02;;;;;;;;;;1833092;77;26356;-57
2022/05/28 08:23:08;;;;;;;2.55;0.93;;;;;;;;;;1833810;77;26266;-61
2022/05/28 08:23:11;;;;;;;4.85;0.90;;;;;;;;;;1832000;77;26359;-59
2022/05/28 08:25:39;;;;;;;4.05;1.00;;;;;;;;;;1830442;76;26694;-50
2022/05/28 08:28:07;;;;;;;1.00;0.90;;;;;;;;;;1832437;77;26198;-51
2022/05/28 08:30:36;;;;;;;3.00;1.00;;;;;;;;;;1828700;77;26779;-55
2022/05/28 08:33:03;;;;;;;1.67;0.90;;;;;;;;;;1825726;77;26923;-58
2022/05/28 08:35:30;;;;;;;2.05;1.05;;;;;;;;;;1825469;77;26325;-52
2022/05/28 08:37:59;;;;;;;0.95;0.80;;;;;;;;;;1831757;77;26285;-56
2022/05/28 08:40:26;;;;;;;2.45;0.90;;;;;;;;;;1828109;76;26266;-58
2022/05/28 08:42:54;;;;;;;2.02;0.90;;;;;;;;;;1827931;76;25990;-62
2022/05/28 08:45:21;;;;;;;0.90;0.90;;;;;;;;;;1832207;77;26265;-54
2022/05/28 08:47:48;;;;;;;1.62;0.98;;;;;;;;;;1834482;76;26282;-56
2022/05/28 08:50:16;;;;;;;1.05;0.90;;;;;;;;;;1824018;77;26795;-63
2022/05/28 08:52:45;;;;;;;1.07;0.95;;;;;;;;;;1835001;77;26273;-63
2022/05/28 08:55:16;;;;;;;2.00;0.90;;;;;;;;;;1834236;78;26242;-56
2022/05/28 08:58:01;;;;;;;4.25;0.90;;;;;;;;;;1834982;76;26380;-52
2022/05/28 09:00:36;;;;;;;4.45;1.10;;;;;;;;;;1828247;77;26285;-63
2022/05/28 09:03:05;;;;;;;3.50;1.10;;;;;;;;;;1837128;78;26297;-63
2022/05/28 09:05:43;;;;;;;3.08;1.15;;;;;;;;;;1826314;77;26759;-56
2022/05/28 09:08:10;;;;;;;2.25;0.98;;;;;;;;;;1834282;77;26266;-55
2022/05/28 09:10:39;;;;;;;1.02;0.78;;;;;;;;;;1834485;77;26317;-54
2022/05/28 09:13:08;;;;;;;2.60;0.90;;;;;;;;;;1834473;77;26351;-59
2022/05/28 09:15:36;;;;;;;1.85;0.90;;;;;;;;;;1835761;77;26270;-56
2022/05/28 09:18:06;;;;;;;3.35;1.40;;;;;;;;;;1835038;77;26696;-52
2022/05/28 09:20:34;;;;;;;6.10;1.12;;;;;;;;;;1829300;77;27907;-64
2022/05/28 09:23:01;;;;;;;3.15;1.00;;;;;;;;;;1836790;77;26573;-49
2022/05/28 09:25:31;;;;;;;5.12;0.90;;;;;;;;;;1833077;77;26375;-54
2022/05/28 09:28:03;;;;;;;2.62;1.20;;;;;;;;;;1833408;77;26635;-55
2022/05/28 09:30:32;;;;;;;4.33;0.90;;;;;;;;;;1830206;77;26665;-51
2022/05/28 09:33:01;;;;;;;2.33;0.88;;;;;;;;;;1832543;77;26544;-57
2022/05/28 09:35:33;;;;;;;3.35;0.90;;;;;;;;;;1828525;77;26267;-60
2022/05/28 09:38:01;;;;;;;4.17;1.07;;;;;;;;;;1824464;77;26859;-59
2022/05/28 09:40:36;;;;;;;0.95;0.90;;;;;;;;;;1829639;77;26758;-60
2022/05/28 09:43:08;;;;;;;3.08;0.90;;;;;;;;;;1801863;77;26269;-48
2022/05/28 09:45:55;;;;;;;0.85;0.75;;;;;;;;;;1845144;76;26276;-59
2022/05/28 09:48:24;;;;;;;1.55;0.90;;;;;;;;;;1840390;77;26269;-50
2022/05/28 09:50:51;;;;;;;1.75;1.00;;;;;;;;;;1839760;76;26246;-54
2022/05/28 09:56:12;;;;;;;2.65;0.90;;;;;;;;;;1846094;77;26340;-60
2022/05/28 09:58:41;;;;;;;2.25;0.80;;;;;;;;;;1839989;76;26285;-58
2022/05/28 10:01:09;;;;;;;2.98;0.98;;;;;;;;;;1839234;77;26254;-56
2022/05/28 10:06:24;;;;;;;1.67;0.75;;;;;;;;;;1829774;77;26773;-50
2022/05/28 10:08:51;;;;;;;1.70;1.00;;;;;;;;;;1830340;76;27535;-57
2022/05/28 10:11:19;;;;;;;0.72;0.72;;;;;;;;;;1844098;76;26363;-51
2022/05/28 10:13:48;;;;;;;1.37;0.90;;;;;;;;;;1836540;76;26583;-62
2022/05/28 10:16:23;;;;;;;1.40;0.65;;;;;;;;;;1847883;76;26269;-46
2022/05/28 10:18:58;;;;;;;0.60;0.60;;;;;;;;;;1848333;76;26714;-51
2022/05/28 10:21:37;;;;;;;1.27;0.80;;;;;;;;;;1846768;76;26198;-55
2022/05/28 10:24:06;;;;;;;0.70;0.70;;;;;;;;;;1835447;76;26327;-57
2022/05/28 10:26:36;;;;;;;1.15;0.60;;;;;;;;;;1849522;77;26940;-52
2022/05/28 10:29:07;;;;;;;1.55;0.80;;;;;;;;;;1844905;76;26284;-53
2022/05/28 10:31:40;;;;;;;0.75;0.72;;;;;;;;;;1837303;77;26209;-51
2022/05/28 10:34:10;;;;;;;0.78;0.78;;;;;;;;;;1836904;76;26304;-52
2022/05/28 10:36:37;;;;;;;1.62;0.80;;;;;;;;;;1845283;76;26336;-57
2022/05/28 10:39:16;;;;;;;0.70;0.70;;;;;;;;;;1844784;76;26304;-52
2022/05/28 10:41:44;;;;;;;1.27;0.60;;;;;;;;;;1838325;76;26753;-53
2022/05/28 10:44:16;;;;;;;0.68;0.68;;;;;;;;;;1834836;77;26296;-55
2022/05/28 10:46:47;;;;;;;0.60;0.60;;;;;;;;;;1834812;76;26391;-59
2022/05/28 10:49:28;;;;;;;0.70;0.70;;;;;;;;;;1831919;77;26267;-53
2022/05/28 10:51:58;;;;;;;0.80;0.80;;;;;;;;;;1833358;77;26282;-56
2022/05/28 10:54:39;;;;;;;0.70;0.70;;;;;;;;;;1835113;76;26558;-58
2022/05/28 10:57:14;;;;;;;0.60;0.60;;;;;;;;;;1830601;77;26320;-53
2022/05/28 10:59:48;;;;;;;1.85;0.70;;;;;;;;;;1832672;77;26330;-49
2022/05/28 11:02:17;;;;;;;0.57;0.57;;;;;;;;;;1836379;77;25622;-51
2022/05/28 11:04:53;;;;;;;0.50;0.50;;;;;;;;;;1822273;77;26880;-55
2022/05/28 11:07:28;;;;;;;0.65;0.62;;;;;;;;;;1834446;77;25642;-55
2022/05/28 11:10:00;;;;;;;0.60;0.60;;;;;;;;;;1816020;77;26807;-56
2022/05/28 11:12:35;;;;;;;0.70;0.70;;;;;;;;;;1832725;77;26305;-52
2022/05/28 11:15:20;;;;;;;0.53;0.53;;;;;;;;;;1825357;77;26271;-50
2022/05/28 11:18:01;;;;;;;1.45;0.50;;;;;;;;;;1829263;76;26321;-60
2022/05/28 11:20:32;;;;;;;0.40;0.40;;;;;;;;;;1826493;77;26711;-54
2022/05/28 11:23:08;;;;;;;1.90;0.53;;;;;;;;;;1824139;77;27259;-51
2022/05/28 11:25:37;;;;;;;0.88;0.62;;;;;;;;;;1819624;77;27285;-61
2022/05/28 11:28:06;;;;;;;0.53;0.53;;;;;;;;;;1822825;77;26312;-58
2022/05/28 11:30:34;;;;;;;0.30;0.30;;;;;;;;;;1829666;77;26267;-52
2022/05/28 11:33:20;;;;;;;0.40;0.40;;;;;;;;;;1830658;77;26324;-58
2022/05/28 11:35:57;;;;;;;0.50;0.50;;;;;;;;;;1827373;77;26278;-58
2022/05/28 11:38:38;;;;;;;1.40;0.55;;;;;;;;;;1826647;77;26750;-56
2022/05/28 11:41:07;;;;;;;0.75;0.50;;;;;;;;;;1826959;77;26707;-51
2022/05/28 11:43:40;;;;;;;1.90;0.45;;;;;;;;;;1813843;78;26265;-55
2022/05/28 11:46:07;;;;;;;1.17;0.40;;;;;;;;;;1819513;77;26367;-54
2022/05/28 11:51:28;;;;;;;0.90;0.50;;;;;;;;;;1833477;77;26345;-61
2022/05/28 11:53:57;;;;;;;1.98;0.50;;;;;;;;;;1835157;77;26215;-54
2022/05/28 11:56:28;;;;;;;0.72;0.72;;;;;;;;;;1839614;77;26254;-52
2022/05/28 11:58:59;;;;;;;2.98;0.60;;;;;;;;;;1822078;78;26687;-55
2022/05/28 12:01:28;;;;;;;1.30;0.50;;;;;;;;;;1835405;77;26266;-56
2022/05/28 12:03:56;;;;;;;1.55;0.50;;;;;;;;;;1825747;77;26262;-53
2022/05/28 12:06:27;;;;;;;1.98;0.40;;;;;;;;;;1826640;77;26280;-53
2022/05/28 12:08:59;;;;;;;3.10;0.50;;;;;;;;;;1825596;76;26266;-58
2022/05/28 12:11:34;;;;;;;1.65;0.50;;;;;;;;;;1813865;77;26358;-58
2022/05/28 12:14:02;;;;;;;1.75;0.50;;;;;;;;;;1831121;77;26343;-62
2022/05/28 12:16:31;;;;;;;1.15;0.30;;;;;;;;;;1835371;77;26907;-60
2022/05/28 12:19:01;;;;;;;0.75;0.53;;;;;;;;;;1833067;77;26301;-58
2022/05/28 12:21:33;;;;;;;2.37;0.40;;;;;;;;;;1833756;77;25688;-50
2022/05/28 12:24:04;;;;;;;0.80;0.40;;;;;;;;;;1835307;77;26767;-60
2022/05/28 12:26:47;;;;;;;1.75;0.42;;;;;;;;;;1830013;77;26335;-50
2022/05/28 12:29:45;;;;;;;0.42;0.42;;;;;;;;;;1834693;77;26328;-57
2022/05/28 12:32:16;;;;;;;0.30;0.30;;;;;;;;;;1827623;77;26650;-49
2022/05/28 12:34:58;;;;;;;0.25;0.25;;;;;;;;;;1836106;77;26325;-50
2022/05/28 12:37:27;;;;;;;2.05;0.40;;;;;;;;;;1816719;78;26308;-50
2022/05/28 12:40:05;;;;;;;3.37;0.40;;;;;;;;;;1836858;77;26739;-49
2022/05/28 12:42:32;;;;;;;0.40;0.40;;;;;;;;;;1819667;77;26446;-53
2022/05/28 12:45:01;;;;;;;0.30;0.30;;;;;;;;;;1836650;77;26348;-46
2022/05/28 12:47:29;;;;;;;0.30;0.30;;;;;;;;;;1814839;78;26722;-56
2022/05/28 12:49:58;;;;;;;0.40;0.40;;;;;;;;;;1836088;77;26261;-49
2022/05/28 12:52:30;;;;;;;0.85;0.30;;;;;;;;;;1835055;77;26239;-49
2022/05/28 12:55:14;;;;;;;0.33;0.30;;;;;;;;;;1835141;77;26286;-51
2022/05/28 12:57:41;;;;;;;0.53;0.30;;;;;;;;;;1837194;78;26298;-49
2022/05/28 13:00:12;;;;;;;0.88;0.45;;;;;;;;;;1819561;77;26286;-56
2022/05/28 13:02:43;;;;;;;0.47;0.40;;;;;;;;;;1822556;76;26276;-51
2022/05/28 13:05:12;;;;;;;0.47;0.40;;;;;;;;;;1828335;77;26820;-65
2022/05/28 13:07:46;;;;;;;0.53;0.50;;;;;;;;;;1830344;77;26813;-49
2022/05/28 13:10:15;;;;;;;1.27;0.47;;;;;;;;;;1835290;78;26321;-52
2022/05/28 13:12:47;;;;;;;0.40;0.40;;;;;;;;;;1827690;77;26253;-50
2022/05/28 13:15:22;;;;;;;0.33;0.30;;;;;;;;;;1830258;77;26757;-57
2022/05/28 13:17:56;;;;;;;2.37;0.40;;;;;;;;;;1832584;77;26302;-59
2022/05/28 13:20:26;;;;;;;1.05;0.57;;;;;;;;;;1832857;77;26282;-58
2022/05/28 13:23:11;;;;;;;0.85;0.40;;;;;;;;;;1828195;77;26362;-62
2022/05/28 13:25:54;;;;;;;0.30;0.30;;;;;;;;;;1818603;77;26718;-48
2022/05/28 13:28:32;;;;;;;0.70;0.40;;;;;;;;;;1829114;77;26332;-54
2022/05/28 13:31:01;;;;;;;0.88;0.40;;;;;;;;;;1828228;77;26200;-56
2022/05/28 13:33:29;;;;;;;0.35;0.35;;;;;;;;;;1826296;78;26269;-48
2022/05/28 13:35:58;;;;;;;0.30;0.30;;;;;;;;;;1836029;77;26262;-54
2022/05/28 13:38:30;;;;;;;1.35;0.40;;;;;;;;;;1838109;77;26371;-62
2022/05/28 13:40:58;;;;;;;0.82;0.60;;;;;;;;;;1825187;77;26191;-47
2022/05/28 13:43:27;;;;;;;2.12;0.57;;;;;;;;;;1834434;77;26297;-62
2022/05/28 13:45:56;;;;;;;0.50;0.50;;;;;;;;;;1811537;77;26660;-58
2022/05/28 13:48:24;;;;;;;0.50;0.50;;;;;;;;;;1834832;77;26266;-54
2022/05/28 13:50:53;;;;;;;0.40;0.40;;;;;;;;;;1833592;77;26357;-57
2022/05/28 13:53:22;;;;;;;0.50;0.50;;;;;;;;;;1828408;78;26745;-54
2022/05/28 13:55:49;;;;;;;0.53;0.53;;;;;;;;;;1832522;78;26733;-54
2022/05/28 13:58:21;;;;;;;0.50;0.50;;;;;;;;;;1822218;77;26337;-59
2022/05/28 14:00:55;;;;;;;0.30;0.30;;;;;;;;;;1827273;78;26397;-55
2022/05/28 14:03:27;;;;;;;0.50;0.50;;;;;;;;;;1833121;77;26313;-54
2022/05/28 14:05:55;;;;;;;0.90;0.50;;;;;;;;;;1834661;77;26286;-53
2022/05/28 14:08:23;;;;;;;0.50;0.50;;;;;;;;;;1827391;77;26230;-52
2022/05/28 14:10:52;;;;;;;0.40;0.40;;;;;;;;;;1833579;77;26309;-59
2022/05/28 14:13:27;;;;;;;0.50;0.50;;;;;;;;;;1827412;77;26915;-46
2022/05/28 14:15:56;;;;;;;0.50;0.50;;;;;;;;;;1832325;77;26196;-56
2022/05/28 14:18:27;;;;;;;0.40;0.40;;;;;;;;;;1830534;77;26251;-52
2022/05/28 14:20:56;;;;;;;0.40;0.40;;;;;;;;;;1824007;77;26698;-63
2022/05/28 14:23:27;;;;;;;0.40;0.40;;;;;;;;;;1825984;77;26785;-66
2022/05/28 14:25:55;;;;;;;0.40;0.40;;;;;;;;;;1827081;77;26210;-50
2022/05/28 14:28:25;;;;;;;0.40;0.40;;;;;;;;;;1838107;77;26316;-46
2022/05/28 14:30:52;;;;;;;0.30;0.30;;;;;;;;;;1835373;78;26262;-52
2022/05/28 14:33:27;;;;;;;0.45;0.45;;;;;;;;;;1827724;77;27613;-59
2022/05/28 14:35:56;;;;;;;0.40;0.40;;;;;;;;;;1832044;77;26818;-59
2022/05/28 14:38:25;;;;;;;0.40;0.40;;;;;;;;;;1831325;77;26809;-51
2022/05/28 14:40:53;;;;;;;0.30;0.30;;;;;;;;;;1819408;77;26754;-64
2022/05/28 14:43:23;;;;;;;0.50;0.50;;;;;;;;;;1853200;76;26388;-53
2022/05/28 14:45:52;;;;;;;0.40;0.40;;;;;;;;;;1828342;78;26917;-55
2022/05/28 14:48:22;;;;;;;0.50;0.50;;;;;;;;;;1829958;77;26820;-51
2022/05/28 14:50:52;;;;;;;0.30;0.30;;;;;;;;;;1836490;77;26238;-50
2022/05/28 14:53:30;;;;;;;0.35;0.35;;;;;;;;;;1836533;78;26274;-58
2022/05/28 14:55:58;;;;;;;0.40;0.40;;;;;;;;;;1826200;77;26401;-52
2022/05/28 14:58:26;;;;;;;0.40;0.40;;;;;;;;;;1835957;78;26281;-54
2022/05/28 15:01:07;;;;;;;0.30;0.30;;;;;;;;;;1832182;77;27485;-60
2022/05/28 15:03:35;;;;;;;0.30;0.30;;;;;;;;;;1835686;78;26566;-63
2022/05/28 15:06:11;;;;;;;0.68;0.30;;;;;;;;;;1833961;77;26626;-61